createdAt,value
2023-02-13T00:00:41.834Z,18.56
2023-02-13T00:01:41.823Z,18.61
2023-02-13T00:02:41.922Z,18.61
2023-02-13T00:03:41.998Z,18.58
2023-02-13T00:10:42.194Z,18.56
2023-02-13T00:11:42.237Z,18.58
2023-02-13T00:12:42.288Z,18.58
2023-02-13T00:13:42.344Z,18.57
2023-02-13T00:14:42.385Z,18.56
2023-02-13T01:48:46.055Z,18.62
2023-02-13T01:49:46.140Z,18.58
2023-02-13T01:50:46.170Z,18.59
2023-02-13T01:51:46.193Z,18.62
2023-02-13T01:52:46.206Z,18.67
2023-02-13T01:53:46.212Z,18.68
2023-02-13T01:54:46.200Z,18.59
2023-02-13T01:55:46.203Z,18.62
2023-02-13T01:56:46.190Z,18.62
2023-02-13T01:57:46.215Z,18.56
2023-02-13T01:58:46.203Z,18.61
2023-02-13T01:59:46.211Z,18.59
2023-02-13T02:00:46.220Z,18.61
2023-02-13T02:01:46.486Z,18.55
2023-02-13T02:02:46.262Z,18.67
2023-02-13T02:03:46.235Z,18.64
2023-02-13T02:04:46.233Z,18.62
2023-02-13T02:05:46.340Z,18.64
2023-02-13T02:06:46.392Z,18.59
2023-02-13T02:07:46.411Z,18.59
2023-02-13T02:08:46.465Z,18.58
2023-02-13T02:09:46.507Z,18.62
2023-02-13T02:10:46.579Z,18.62
2023-02-13T02:11:46.588Z,18.59
2023-02-13T02:12:46.599Z,18.61
2023-02-13T02:13:46.610Z,18.64
2023-02-13T02:14:46.618Z,18.61
2023-02-13T02:15:46.751Z,18.64
2023-02-13T02:16:46.718Z,18.64
2023-02-13T02:17:46.781Z,18.59
2023-02-13T02:18:46.853Z,18.64
2023-02-13T02:19:46.891Z,18.64
2023-02-13T02:20:46.934Z,18.64
2023-02-13T02:21:46.986Z,18.62
2023-02-13T02:22:47.054Z,18.65
2023-02-13T02:23:47.125Z,18.64
2023-02-13T02:24:47.199Z,18.64
2023-02-13T02:25:47.262Z,18.59
2023-02-13T02:26:47.267Z,18.62
2023-02-13T02:27:47.319Z,18.64
2023-02-13T02:28:47.384Z,18.65
2023-02-13T02:29:47.442Z,18.62
2023-02-13T02:30:47.565Z,18.61
2023-02-13T02:31:47.618Z,18.65
2023-02-13T02:32:47.581Z,18.59
2023-02-13T02:33:47.666Z,18.66
2023-02-13T02:34:47.723Z,18.66
2023-02-13T02:35:48.307Z,18.62
2023-02-13T02:36:47.835Z,18.61
2023-02-13T02:37:47.907Z,18.61
2023-02-13T02:38:47.934Z,18.65
2023-02-13T02:39:48.015Z,18.61
2023-02-13T02:40:48.054Z,18.59
2023-02-13T02:41:48.137Z,18.65
2023-02-13T02:42:48.180Z,18.59
2023-02-13T02:43:48.246Z,18.64
2023-02-13T02:44:48.300Z,18.64
2023-02-13T02:45:48.326Z,18.61
2023-02-13T02:46:48.424Z,18.65
2023-02-13T02:47:48.430Z,18.65
2023-02-13T02:48:48.515Z,18.68
2023-02-13T02:49:48.596Z,18.64
2023-02-13T02:50:48.622Z,18.64
2023-02-13T02:51:48.686Z,18.64
2023-02-13T02:52:48.740Z,18.61
2023-02-13T02:53:48.817Z,18.65
2023-02-13T02:54:48.859Z,18.64
2023-02-13T02:55:48.933Z,18.65
2023-02-13T02:56:48.938Z,18.61
2023-02-13T02:57:48.980Z,18.62
2023-02-13T02:58:49.001Z,18.66
2023-02-13T02:59:48.981Z,18.64
2023-02-13T03:00:49.001Z,18.60
2023-02-13T03:01:49.029Z,18.60
2023-02-13T03:28:49.857Z,18.61
2023-02-13T04:15:50.349Z,18.64
2023-02-13T04:18:50.360Z,18.64
2023-02-13T04:19:50.431Z,18.63
2023-02-13T04:20:50.405Z,18.66
2023-02-13T04:21:50.416Z,18.66
2023-02-13T04:22:50.401Z,18.57
2023-02-13T06:02:01.858Z,18.67
2023-02-13T06:46:01.421Z,18.72
2023-02-13T06:46:54.476Z,18.66
2023-02-13T06:47:54.358Z,18.72
2023-02-13T06:48:54.328Z,18.69
2023-02-13T06:49:54.366Z,18.67
2023-02-13T06:50:54.335Z,18.70
2023-02-13T06:51:54.313Z,18.69
2023-02-13T06:52:54.289Z,18.70
2023-02-13T06:53:54.314Z,18.76
2023-02-13T06:54:54.301Z,18.67
2023-02-13T06:55:54.292Z,18.66
2023-02-13T06:56:54.270Z,18.70
2023-02-13T06:57:54.255Z,18.69
2023-02-13T06:58:54.292Z,18.72
2023-02-13T06:59:54.265Z,18.66
2023-02-13T07:00:54.429Z,18.67
2023-02-13T07:01:54.273Z,18.70
2023-02-13T07:02:54.300Z,18.72
2023-02-13T07:03:54.260Z,18.72
2023-02-13T07:04:54.205Z,18.70
2023-02-13T07:05:54.248Z,18.67
2023-02-13T07:06:54.232Z,18.67
2023-02-13T07:07:54.201Z,18.73
2023-02-13T07:08:54.204Z,18.72
2023-02-13T07:09:54.194Z,18.70
2023-02-13T07:10:54.238Z,18.66
2023-02-13T07:11:54.210Z,18.70
2023-02-13T07:13:05.450Z,18.67
2023-02-13T07:13:55.249Z,18.70
2023-02-13T07:14:54.238Z,18.72
2023-02-13T07:15:54.292Z,18.69
2023-02-13T07:16:54.214Z,18.70
2023-02-13T07:17:54.219Z,18.66
2023-02-13T07:19:54.178Z,18.64
2023-02-13T07:20:54.155Z,18.69
2023-02-13T07:21:54.145Z,18.72
2023-02-13T07:22:54.172Z,18.73
2023-02-13T07:23:54.207Z,18.67
2023-02-13T07:24:54.142Z,18.69
2023-02-13T07:25:54.145Z,18.72
2023-02-13T07:26:54.130Z,18.69
2023-02-13T07:27:54.171Z,18.72
2023-02-13T07:29:05.768Z,18.72
2023-02-13T07:29:55.216Z,18.75
2023-02-13T07:30:56.088Z,18.82
2023-02-13T07:31:54.242Z,18.74
2023-02-13T07:32:54.252Z,18.80
2023-02-13T07:33:54.323Z,18.74
2023-02-13T07:35:01.700Z,18.74
2023-02-13T07:35:55.338Z,18.75
2023-02-13T07:36:54.368Z,18.71
2023-02-13T07:37:54.364Z,18.74
2023-02-13T07:38:54.336Z,18.71
2023-02-13T07:39:54.309Z,18.72
2023-02-13T07:40:54.469Z,18.77
2023-02-13T07:41:54.319Z,18.73
2023-02-13T07:42:54.321Z,18.71
2023-02-13T07:45:54.512Z,18.70
2023-02-13T07:46:54.608Z,18.69
2023-02-13T07:47:54.522Z,18.67
2023-02-13T07:48:54.582Z,18.69
2023-02-13T07:49:54.605Z,18.67
2023-02-13T08:25:56.002Z,18.42
2023-02-13T08:26:55.446Z,18.39
2023-02-13T08:27:55.421Z,18.36
2023-02-13T08:28:55.410Z,18.33
2023-02-13T08:29:55.376Z,18.36
2023-02-13T08:30:55.527Z,18.33
2023-02-13T08:31:55.407Z,18.35
2023-02-13T08:36:55.372Z,18.29
2023-02-13T08:37:55.404Z,18.25
2023-02-13T08:38:55.430Z,18.29
2023-02-13T08:39:55.419Z,18.29
2023-02-13T08:40:55.927Z,18.32
2023-02-13T08:41:55.397Z,18.28
2023-02-13T08:42:57.532Z,18.25
2023-02-13T08:43:55.385Z,18.24
2023-02-13T08:44:55.408Z,18.24
2023-02-13T08:45:55.975Z,18.25
2023-02-13T08:46:55.433Z,18.24
2023-02-13T08:47:55.433Z,18.23
2023-02-13T08:48:55.438Z,18.23
2023-02-13T08:49:55.487Z,18.24
2023-02-13T08:50:55.485Z,18.24
2023-02-13T08:51:55.506Z,18.24
2023-02-13T08:52:55.511Z,18.23
2023-02-13T08:53:55.519Z,18.20
2023-02-13T08:54:55.566Z,18.23
2023-02-13T08:55:55.883Z,18.21
2023-02-13T08:56:57.237Z,18.16
2023-02-13T08:57:55.740Z,18.21
2023-02-13T08:58:55.785Z,18.23
2023-02-13T08:59:55.841Z,18.20
2023-02-13T09:00:55.932Z,18.21
2023-02-13T09:01:55.932Z,18.19
2023-02-13T09:02:56.113Z,18.17
2023-02-13T09:03:56.090Z,18.21
2023-02-13T09:04:56.177Z,18.13
2023-02-13T09:05:56.313Z,18.16
2023-02-13T09:06:56.251Z,18.18
2023-02-13T09:07:56.325Z,18.21
2023-02-13T09:08:56.360Z,18.18
2023-02-13T09:09:56.395Z,18.16
2023-02-13T09:10:56.457Z,18.18
2023-02-13T09:11:56.449Z,18.19
2023-02-13T09:12:56.474Z,18.14
2023-02-13T09:13:56.530Z,18.20
2023-02-13T09:14:56.576Z,18.20
2023-02-13T09:15:56.897Z,18.17
2023-02-13T09:16:56.634Z,18.20
2023-02-13T09:17:56.662Z,18.21
2023-02-13T09:18:56.684Z,18.24
2023-02-13T09:19:56.720Z,18.21
2023-02-13T09:20:56.755Z,18.17
2023-02-13T09:21:56.757Z,18.25
2023-02-13T09:22:56.814Z,18.19
2023-02-13T09:23:56.814Z,18.22
2023-02-13T09:24:56.837Z,18.20
2023-02-13T09:25:57.198Z,18.20
2023-02-13T09:26:56.961Z,18.20
2023-02-13T09:27:56.943Z,18.23
2023-02-13T09:28:56.924Z,18.20
2023-02-13T09:29:56.953Z,18.20
2023-02-13T09:30:57.039Z,18.20
2023-02-13T09:31:57.105Z,18.25
2023-02-13T09:32:57.024Z,18.19
2023-02-13T09:33:57.039Z,18.21
2023-02-13T09:34:57.081Z,18.23
2023-02-13T09:35:57.487Z,18.21
2023-02-13T09:36:57.179Z,18.21
2023-02-13T09:37:57.227Z,18.19
2023-02-13T09:38:57.244Z,18.25
2023-02-13T09:39:57.287Z,18.22
2023-02-13T09:40:57.328Z,18.26
2023-02-13T09:41:57.369Z,18.19
2023-02-13T09:42:57.449Z,18.27
2023-02-13T09:43:57.454Z,18.24
2023-02-13T09:44:57.526Z,18.22
2023-02-13T09:45:58.006Z,18.27
2023-02-13T09:46:57.598Z,18.24
2023-02-13T09:47:57.627Z,18.27
2023-02-13T09:48:57.706Z,18.24
2023-02-13T09:49:57.726Z,18.28
2023-02-13T09:50:57.759Z,18.22
2023-02-13T09:51:57.814Z,18.26
2023-02-13T09:52:57.829Z,18.29
2023-02-13T09:53:57.841Z,18.27
2023-02-13T09:54:57.835Z,18.27
2023-02-13T09:55:58.213Z,18.24
2023-02-13T09:56:57.894Z,18.27
2023-02-13T09:57:57.901Z,18.26
2023-02-13T09:58:57.862Z,18.23
2023-02-13T09:59:57.886Z,18.29
2023-02-13T10:00:57.836Z,18.26
2023-02-13T10:01:57.945Z,18.30
2023-02-13T10:02:57.859Z,18.32
2023-02-13T10:03:57.848Z,18.27
2023-02-13T10:04:57.908Z,18.24
2023-02-13T10:05:58.351Z,18.30
2023-02-13T10:06:57.859Z,18.32
2023-02-13T10:07:57.922Z,18.24
2023-02-13T10:11:57.873Z,18.33
2023-02-13T10:12:57.855Z,18.32
2023-02-13T10:13:57.893Z,18.32
2023-02-13T10:14:57.835Z,18.31
2023-02-13T10:15:58.306Z,18.33
2023-02-13T10:16:57.839Z,18.37
2023-02-13T10:17:57.888Z,18.37
2023-02-13T10:18:57.895Z,18.33
2023-02-13T10:19:57.843Z,18.37
2023-02-13T10:20:57.833Z,18.38
2023-02-13T10:21:57.863Z,18.37
2023-02-13T10:22:57.861Z,18.37
2023-02-13T10:23:57.848Z,18.37
2023-02-13T10:24:57.870Z,18.41
2023-02-13T10:25:58.303Z,18.40
2023-02-13T10:26:57.961Z,18.40
2023-02-13T10:27:57.969Z,18.42
2023-02-13T10:28:58.018Z,18.38
2023-02-13T10:29:58.085Z,18.36
2023-02-13T10:30:58.187Z,18.39
2023-02-13T10:31:58.213Z,18.36
2023-02-13T10:32:58.137Z,18.39
2023-02-13T10:33:58.204Z,18.43
2023-02-13T10:34:58.206Z,18.40
2023-02-13T10:35:58.507Z,18.44
2023-02-13T10:36:58.287Z,18.40
2023-02-13T10:37:58.354Z,18.42
2023-02-13T10:38:58.338Z,18.37
2023-02-13T10:39:58.399Z,18.45
2023-02-13T10:40:58.396Z,18.43
2023-02-13T10:41:58.469Z,18.43
2023-02-13T10:42:58.470Z,18.39
2023-02-13T10:43:58.534Z,18.39
2023-02-13T10:44:58.516Z,18.42
2023-02-13T10:45:59.066Z,18.43
2023-02-13T10:46:58.594Z,18.42
2023-02-13T10:47:59.167Z,18.43
2023-02-13T10:48:58.646Z,18.39
2023-02-13T10:49:58.724Z,18.43
2023-02-13T10:50:58.701Z,18.40
2023-02-13T10:51:58.741Z,18.43
2023-02-13T10:52:58.795Z,18.41
2023-02-13T10:53:58.798Z,18.42
2023-02-13T10:55:00.429Z,18.43
2023-02-13T10:55:59.390Z,18.45
2023-02-13T10:56:59.079Z,18.45
2023-02-13T10:57:59.089Z,18.44
2023-02-13T10:58:59.192Z,18.41
2023-02-13T10:59:59.227Z,18.45
2023-02-13T11:00:59.318Z,18.45
2023-02-13T11:02:59.423Z,18.47
2023-02-13T11:03:59.517Z,18.45
2023-02-13T11:04:59.485Z,18.42
2023-02-13T11:05:59.958Z,18.44
2023-02-13T11:06:59.609Z,18.45
2023-02-13T11:07:59.712Z,18.41
2023-02-13T11:08:59.773Z,18.44
2023-02-13T11:09:59.773Z,18.45
2023-02-13T11:10:59.799Z,18.42
2023-02-13T11:11:59.831Z,18.48
2023-02-13T11:12:59.894Z,18.42
2023-02-13T11:13:59.940Z,18.42
2023-02-13T11:15:00.140Z,18.46
2023-02-13T11:16:00.584Z,18.44
2023-02-13T11:17:00.097Z,18.44
2023-02-13T11:18:00.156Z,18.47
2023-02-13T11:19:00.207Z,18.47
2023-02-13T11:20:00.286Z,18.47
2023-02-13T11:21:00.372Z,18.46
2023-02-13T11:22:00.388Z,18.50
2023-02-13T11:23:00.478Z,18.46
2023-02-13T11:24:00.541Z,18.52
2023-02-13T11:25:00.606Z,18.49
2023-02-13T11:26:00.681Z,18.49
2023-02-13T11:27:00.654Z,18.47
2023-02-13T11:28:00.804Z,18.44
2023-02-13T11:29:00.816Z,18.47
2023-02-13T11:30:00.856Z,18.53
2023-02-13T11:31:00.989Z,18.53
2023-02-13T11:32:01.142Z,18.46
2023-02-13T11:33:01.060Z,18.49
2023-02-13T11:34:01.117Z,18.56
2023-02-13T11:35:01.178Z,18.53
2023-02-13T11:36:01.285Z,18.50
2023-02-13T11:37:01.292Z,18.55
2023-02-13T11:38:01.321Z,18.52
2023-02-13T11:39:01.423Z,18.47
2023-02-13T11:40:01.500Z,18.55
2023-02-13T11:41:01.525Z,18.53
2023-02-13T11:42:01.628Z,18.55
2023-02-13T11:43:01.994Z,18.55
2023-02-13T11:44:01.714Z,18.57
2023-02-13T11:45:01.753Z,18.55
2023-02-13T11:46:02.011Z,18.55
2023-02-13T11:47:01.983Z,18.58
2023-02-13T11:48:01.919Z,18.53
2023-02-13T11:49:02.031Z,18.51
2023-02-13T11:50:02.065Z,18.52
2023-02-13T11:51:02.068Z,18.58
2023-02-13T11:52:02.153Z,18.58
2023-02-13T11:53:02.199Z,18.58
2023-02-13T11:54:02.291Z,18.57
2023-02-13T11:55:05.081Z,18.61
2023-02-13T11:56:02.338Z,18.60
2023-02-13T11:57:04.879Z,18.57
2023-02-13T11:58:02.327Z,18.57
2023-02-13T11:59:02.359Z,18.54
2023-02-13T12:01:02.410Z,18.58
2023-02-13T12:02:02.288Z,18.55
2023-02-13T12:03:02.430Z,18.57
2023-02-13T12:04:02.401Z,18.54
2023-02-13T12:06:02.255Z,18.66
2023-02-13T12:07:02.271Z,18.61
2023-02-13T12:08:02.281Z,18.60
2023-02-13T12:09:02.256Z,18.60
2023-02-13T12:10:02.275Z,18.60
2023-02-13T12:11:02.236Z,18.61
2023-02-13T12:12:02.228Z,18.58
2023-02-13T12:13:02.188Z,18.58
2023-02-13T12:14:02.196Z,18.63
2023-02-13T12:17:02.179Z,18.60
2023-02-13T12:18:02.181Z,18.63
2023-02-13T12:20:02.169Z,18.58
2023-02-13T12:21:02.179Z,18.60
2023-02-13T12:22:02.158Z,18.61
2023-02-13T12:23:02.134Z,18.66
2023-02-13T12:24:02.152Z,18.64
2023-02-13T12:25:02.115Z,18.63
2023-02-13T12:26:02.273Z,18.66
2023-02-13T12:27:02.169Z,18.66
2023-02-13T12:28:02.168Z,18.63
2023-02-13T12:29:02.149Z,18.63
2023-02-13T12:30:02.083Z,18.61
2023-02-13T12:31:02.449Z,18.61
2023-02-13T12:32:02.130Z,18.63
2023-02-13T12:33:02.510Z,18.60
2023-02-13T12:34:02.081Z,18.60
2023-02-13T12:35:02.036Z,18.64
2023-02-13T12:36:02.062Z,18.61
2023-02-13T12:37:02.022Z,18.63
2023-02-13T12:38:02.038Z,18.63
2023-02-13T12:40:01.993Z,18.63
2023-02-13T12:41:02.057Z,18.67
2023-02-13T12:42:02.093Z,18.66
2023-02-13T12:43:02.119Z,18.64
2023-02-13T12:44:02.163Z,18.70
2023-02-13T12:45:02.254Z,18.70
2023-02-13T12:46:02.315Z,18.65
2023-02-13T12:47:02.364Z,18.70
2023-02-13T12:51:02.566Z,18.68
2023-02-13T12:52:02.598Z,18.68
2023-02-13T12:53:02.647Z,18.70
2023-02-13T12:54:02.674Z,18.76
2023-02-13T12:55:02.712Z,18.65
2023-02-13T12:57:02.835Z,18.70
2023-02-13T12:58:02.892Z,18.65
2023-02-13T12:59:02.938Z,18.71
2023-02-13T13:00:03.018Z,18.74
2023-02-13T13:01:03.020Z,18.71
2023-02-13T13:02:03.101Z,18.72
2023-02-13T13:09:03.338Z,18.72
2023-02-13T13:10:03.364Z,18.74
2023-02-13T13:11:03.440Z,18.69
2023-02-13T13:12:03.411Z,18.77
2023-02-13T13:13:03.496Z,18.74
2023-02-13T13:14:03.515Z,18.72
2023-02-13T13:15:03.533Z,18.72
2023-02-13T13:16:03.542Z,18.70
2023-02-13T13:17:03.627Z,18.75
2023-02-13T13:18:03.636Z,18.73
2023-02-13T13:19:03.657Z,18.78
2023-02-13T13:22:03.799Z,18.81
2023-02-13T13:23:03.854Z,18.78
2023-02-13T13:24:03.823Z,18.77
2023-02-13T13:25:03.876Z,18.75
2023-02-13T13:26:03.918Z,18.78
2023-02-13T13:27:03.943Z,18.75
2023-02-13T13:28:04.512Z,18.75
2023-02-13T13:29:04.020Z,18.75
2023-02-13T13:30:04.104Z,18.77
2023-02-13T13:31:04.143Z,18.73
2023-02-13T13:32:04.135Z,18.71
2023-02-13T13:33:04.140Z,18.77
2023-02-13T13:34:04.154Z,18.75
2023-02-13T13:35:04.174Z,18.80
2023-02-13T13:36:04.224Z,18.76
2023-02-13T13:37:04.270Z,18.80
2023-02-13T13:38:04.548Z,18.73
2023-02-13T13:39:04.324Z,18.80
2023-02-13T13:40:04.353Z,18.80
2023-02-13T13:42:04.447Z,18.77
2023-02-13T13:43:04.468Z,18.79
2023-02-13T13:44:04.525Z,18.76
2023-02-13T13:45:04.547Z,18.77
2023-02-13T13:46:04.557Z,18.84
2023-02-13T13:47:04.598Z,18.79
2023-02-13T13:48:04.597Z,18.77
2023-02-13T14:00:06.073Z,18.85
2023-02-13T14:01:05.043Z,18.86
2023-02-13T14:02:05.089Z,18.82
2023-02-13T14:03:05.060Z,18.80
2023-02-13T14:04:04.995Z,18.83
2023-02-13T14:06:05.041Z,18.80
2023-02-13T14:08:05.000Z,18.84
2023-02-13T14:09:04.974Z,18.83
2023-02-13T14:10:04.964Z,18.86
2023-02-13T14:11:04.973Z,18.84
2023-02-13T14:12:04.982Z,18.82
2023-02-13T14:13:04.971Z,18.82
2023-02-13T14:14:04.961Z,18.81
2023-02-13T14:15:04.993Z,18.81
2023-02-13T14:16:05.073Z,18.81
2023-02-13T14:17:04.951Z,18.86
2023-02-13T14:18:04.960Z,18.86
2023-02-13T14:19:04.957Z,18.84
2023-02-13T14:20:04.971Z,18.86
2023-02-13T14:21:04.984Z,18.87
2023-02-13T14:22:04.951Z,18.84
2023-02-13T14:23:05.007Z,18.87
2023-02-13T14:24:04.998Z,18.84
2023-02-13T14:25:04.998Z,18.86
2023-02-13T14:26:05.010Z,18.86
2023-02-13T14:27:06.410Z,18.84
2023-02-13T14:28:04.960Z,18.79
2023-02-13T14:29:04.982Z,18.84
2023-02-13T14:30:05.011Z,18.81
2023-02-13T14:31:05.145Z,18.82
2023-02-13T14:33:05.110Z,18.86
2023-02-13T14:34:05.170Z,18.78
2023-02-13T14:35:05.195Z,18.83
2023-02-13T14:36:05.196Z,18.83
2023-02-13T14:37:05.267Z,18.78
2023-02-13T14:38:05.349Z,18.78
2023-02-13T14:39:05.348Z,18.86
2023-02-13T14:40:05.406Z,18.77
2023-02-13T14:41:05.465Z,18.81
2023-02-13T14:42:05.474Z,18.81
2023-02-13T14:43:05.588Z,18.78
2023-02-13T14:44:05.583Z,18.79
2023-02-13T14:45:05.646Z,18.81
2023-02-13T14:46:05.692Z,18.76
2023-02-13T14:47:05.835Z,18.78
2023-02-13T14:48:05.772Z,18.78
2023-02-13T14:49:05.753Z,18.78
2023-02-13T14:50:05.799Z,18.81
2023-02-13T14:51:05.774Z,18.82
2023-02-13T14:52:05.815Z,18.76
2023-02-13T14:53:05.816Z,18.78
2023-02-13T15:02:05.876Z,18.76
2023-02-13T15:03:05.890Z,18.82
2023-02-13T15:04:05.958Z,18.73
2023-02-13T15:05:05.875Z,18.75
2023-02-13T15:06:05.879Z,18.79
2023-02-13T15:07:05.880Z,18.79
2023-02-13T15:08:05.937Z,18.75
2023-02-13T15:09:05.920Z,18.82
2023-02-13T15:10:05.966Z,18.76
2023-02-13T15:11:05.985Z,18.79
2023-02-13T15:12:05.992Z,18.73
2023-02-13T15:13:06.002Z,18.73
2023-02-13T15:14:05.966Z,18.73
2023-02-13T15:15:06.009Z,18.76
2023-02-13T15:16:06.080Z,18.75
2023-02-13T15:19:06.083Z,18.79
2023-02-13T15:20:06.099Z,18.77
2023-02-13T15:21:06.160Z,18.78
2023-02-13T15:22:06.165Z,18.77
2023-02-13T15:23:06.218Z,18.80
2023-02-13T15:24:06.264Z,18.77
2023-02-13T15:25:06.340Z,18.76
2023-02-13T15:26:06.350Z,18.81
2023-02-13T15:27:06.391Z,18.79
2023-02-13T15:28:06.477Z,18.76
2023-02-13T15:29:11.352Z,18.73
2023-02-13T15:30:07.634Z,18.78
2023-02-13T15:31:06.585Z,18.75
2023-02-13T15:32:06.535Z,18.71
2023-02-13T15:33:06.427Z,18.75
2023-02-13T15:34:06.436Z,18.80
2023-02-13T15:35:06.443Z,18.77
2023-02-13T15:36:06.439Z,18.77
2023-02-13T15:37:06.391Z,18.76
2023-02-13T15:38:06.425Z,18.79
2023-02-13T15:39:08.547Z,18.76
2023-02-13T15:40:06.376Z,18.71
2023-02-13T15:41:06.390Z,18.76
2023-02-13T15:42:06.360Z,18.75
2023-02-13T15:43:06.326Z,18.75
2023-02-13T15:44:06.350Z,18.73
2023-02-13T15:45:06.369Z,18.73
2023-02-13T15:46:06.444Z,18.75
2023-02-13T15:47:07.286Z,18.73
2023-02-13T15:48:06.324Z,18.71
2023-02-13T15:49:06.304Z,18.77
2023-02-13T15:50:06.299Z,18.79
2023-02-13T15:51:06.308Z,18.77
2023-02-13T15:52:06.278Z,18.76
2023-02-13T15:53:06.305Z,18.71
2023-02-13T15:54:06.257Z,18.71
2023-02-13T15:55:06.279Z,18.73
2023-02-13T15:56:06.241Z,18.75
2023-02-13T15:57:06.303Z,18.71
2023-02-13T15:58:06.253Z,18.71
2023-02-13T15:59:06.195Z,18.74
2023-02-13T16:00:06.213Z,18.70
2023-02-13T16:01:06.207Z,18.65
2023-02-13T16:02:06.272Z,18.73
2023-02-13T16:03:06.241Z,18.73
2023-02-13T16:04:06.198Z,18.68
2023-02-13T16:05:06.183Z,18.75
2023-02-13T16:06:06.182Z,18.71
2023-02-13T16:07:06.150Z,18.76
2023-02-13T16:08:06.144Z,18.74
2023-02-13T16:09:06.149Z,18.72
2023-02-13T16:10:06.160Z,18.72
2023-02-13T16:11:06.134Z,18.83
2023-02-13T16:12:06.143Z,18.72
2023-02-13T16:13:06.105Z,18.77
2023-02-13T16:14:06.122Z,18.75
2023-02-13T16:15:06.093Z,18.72
2023-02-13T16:16:06.109Z,18.71
2023-02-13T16:17:06.067Z,18.74
2023-02-13T16:18:06.112Z,18.74
2023-02-13T16:19:06.195Z,18.77
2023-02-13T16:20:06.207Z,18.75
2023-02-13T16:21:06.283Z,18.74
2023-02-13T16:22:06.311Z,18.75
2023-02-13T16:23:06.424Z,18.78
2023-02-13T16:24:06.475Z,18.77
2023-02-13T16:25:06.514Z,18.72
2023-02-13T16:26:06.588Z,18.74
2023-02-13T16:27:06.596Z,18.75
2023-02-13T16:28:06.643Z,18.78
2023-02-13T16:29:06.672Z,18.78
2023-02-13T16:30:06.773Z,18.78
2023-02-13T16:31:06.794Z,18.77
2023-02-13T16:32:06.785Z,18.74
2023-02-13T16:33:06.804Z,18.77
2023-02-13T16:34:06.778Z,18.80
2023-02-13T16:35:06.840Z,18.75
2023-02-13T16:36:06.879Z,18.80
2023-02-13T16:37:06.857Z,18.84
2023-02-13T16:38:06.905Z,18.78
2023-02-13T16:39:06.942Z,18.81
2023-02-13T16:40:07.010Z,18.80
2023-02-13T16:41:07.015Z,18.84
2023-02-13T16:42:07.043Z,18.82
2023-02-13T16:43:07.077Z,18.84
2023-02-13T16:44:07.123Z,18.81
2023-02-13T16:45:07.133Z,18.79
2023-02-13T16:46:07.170Z,18.82
2023-02-13T16:47:07.209Z,18.84
2023-02-13T16:48:07.238Z,18.76
2023-02-13T16:49:07.280Z,18.79
2023-02-13T16:50:07.287Z,18.82
2023-02-13T16:51:07.327Z,18.82
2023-02-13T16:52:07.371Z,18.90
2023-02-13T16:53:07.397Z,18.87
2023-02-13T16:54:07.457Z,18.85
2023-02-13T16:55:07.464Z,18.84
2023-02-13T16:56:07.498Z,18.85
2023-02-13T16:57:07.549Z,18.86
2023-02-13T16:58:07.583Z,18.85
2023-02-13T16:59:07.628Z,18.83
2023-02-13T17:00:07.650Z,18.85
2023-02-13T17:01:07.755Z,18.85
2023-02-13T17:02:07.805Z,18.85
2023-02-13T17:03:07.832Z,18.86
2023-02-13T17:04:07.915Z,18.92
2023-02-13T17:05:07.944Z,18.89
2023-02-13T17:06:08.033Z,18.85
2023-02-13T17:07:08.064Z,18.92
2023-02-13T17:08:08.141Z,18.89
2023-02-13T17:09:08.222Z,18.88
2023-02-13T17:10:08.248Z,18.89
2023-02-13T17:11:08.285Z,18.91
2023-02-13T17:12:08.351Z,18.91
2023-02-13T17:13:08.418Z,18.86
2023-02-13T17:14:08.478Z,18.89
2023-02-13T17:15:08.555Z,18.89
2023-02-13T17:16:08.608Z,18.93
2023-02-13T17:17:08.670Z,18.92
2023-02-13T17:18:08.664Z,18.86
2023-02-13T17:19:08.705Z,18.89
2023-02-13T17:20:08.761Z,18.89
2023-02-13T17:21:08.769Z,18.90
2023-02-13T17:22:08.803Z,18.90
2023-02-13T17:23:08.858Z,18.93
2023-02-13T17:24:08.889Z,18.93
2023-02-13T17:25:08.957Z,18.93
2023-02-13T17:26:09.029Z,18.93
2023-02-13T17:27:09.087Z,18.90
2023-02-13T17:28:09.496Z,18.95
2023-02-13T17:29:09.237Z,18.95
2023-02-13T17:30:09.349Z,18.92
2023-02-13T17:31:09.344Z,18.93
2023-02-13T17:32:09.520Z,19.01
2023-02-13T17:33:09.471Z,18.96
2023-02-13T17:34:09.519Z,18.95
2023-02-13T17:35:09.609Z,18.95
2023-02-13T17:36:09.662Z,18.99
2023-02-13T17:37:09.739Z,19.01
2023-02-13T17:38:10.117Z,18.92
2023-02-13T17:39:09.804Z,18.95
2023-02-13T17:40:09.865Z,18.96
2023-02-13T17:41:09.908Z,18.95
2023-02-13T17:42:09.953Z,18.96
2023-02-13T17:43:10.043Z,18.95
2023-02-13T17:44:10.078Z,18.96
2023-02-13T17:45:10.127Z,18.95
2023-02-13T17:46:10.220Z,18.90
2023-02-13T17:47:10.245Z,18.96
2023-02-13T17:48:10.319Z,18.96
2023-02-13T17:49:10.382Z,18.96
2023-02-13T17:50:11.024Z,18.99
2023-02-13T17:51:10.504Z,18.93
2023-02-13T17:52:10.559Z,18.96
2023-02-13T17:53:10.618Z,18.95
2023-02-13T17:54:10.646Z,18.99
2023-02-13T17:55:10.706Z,18.98
2023-02-13T17:56:10.736Z,18.98
2023-02-13T17:57:10.788Z,18.94
2023-02-13T17:58:10.832Z,18.99
2023-02-13T17:59:10.867Z,18.99
2023-02-13T18:00:10.900Z,18.96
2023-02-13T18:01:10.952Z,18.94
2023-02-13T18:02:10.997Z,18.97
2023-02-13T18:03:11.027Z,18.96
2023-02-13T18:04:11.140Z,18.98
2023-02-13T18:05:11.098Z,18.98
2023-02-13T18:06:11.189Z,19.00
2023-02-13T18:07:11.219Z,19.00
2023-02-13T18:08:11.240Z,18.94
2023-02-13T18:09:11.289Z,19.00
2023-02-13T18:10:13.042Z,18.99
2023-02-13T18:11:11.369Z,18.96
2023-02-13T18:12:11.410Z,18.97
2023-02-13T18:13:11.370Z,18.99
2023-02-13T18:14:11.340Z,19.00
2023-02-13T18:15:11.352Z,18.98
2023-02-13T18:16:11.412Z,19.00
2023-02-13T18:17:11.470Z,18.98
2023-02-13T18:18:11.527Z,19.02
2023-02-13T18:19:11.571Z,19.00
2023-02-13T18:20:11.588Z,19.00
2023-02-13T18:21:12.739Z,18.98
2023-02-13T18:22:11.689Z,19.02
2023-02-13T18:23:11.727Z,19.03
2023-02-13T18:24:11.790Z,19.04
2023-02-13T18:25:11.842Z,19.00
2023-02-13T18:26:11.869Z,19.00
2023-02-13T18:27:11.895Z,19.02
2023-02-13T18:28:11.924Z,19.02
2023-02-13T18:29:11.967Z,18.97
2023-02-13T18:30:12.059Z,19.03
2023-02-13T18:31:12.127Z,19.00
2023-02-13T18:32:12.221Z,18.98
2023-02-13T18:33:12.069Z,19.03
2023-02-13T18:34:12.082Z,19.01
2023-02-13T18:35:12.060Z,18.98
2023-02-13T18:36:12.083Z,19.01
2023-02-13T18:37:12.098Z,19.03
2023-02-13T18:38:12.152Z,18.98
2023-02-13T18:39:12.205Z,19.00
2023-02-13T18:40:12.216Z,19.01
2023-02-13T18:41:12.289Z,18.95
2023-02-13T18:42:12.318Z,19.01
2023-02-13T18:43:12.347Z,19.03
2023-02-13T18:44:17.308Z,19.04
2023-02-13T18:46:12.423Z,19.03
2023-02-13T18:47:12.374Z,18.97
2023-02-13T18:48:12.451Z,19.01
2023-02-13T18:49:12.401Z,19.01
2023-02-13T18:50:12.368Z,18.97
2023-02-13T18:51:12.433Z,19.01
2023-02-13T18:52:12.349Z,19.00
2023-02-13T18:53:12.358Z,19.03
2023-02-13T18:54:12.371Z,19.00
2023-02-13T18:55:12.429Z,18.98
2023-02-13T18:56:12.364Z,19.03
2023-02-13T18:57:12.338Z,19.03
2023-02-13T18:58:12.414Z,19.03
2023-02-13T18:59:12.412Z,19.04
2023-02-13T19:00:12.441Z,18.98
2023-02-13T19:01:12.551Z,19.00
2023-02-13T19:02:12.571Z,18.98
2023-02-13T19:03:12.604Z,19.09
2023-02-13T19:04:12.611Z,19.01
2023-02-13T19:05:12.656Z,19.01
2023-02-13T19:06:12.692Z,18.98
2023-02-13T19:07:12.735Z,19.00
2023-02-13T19:08:12.829Z,19.00
2023-02-13T19:09:12.841Z,19.03
2023-02-13T19:10:12.894Z,19.01
2023-02-13T19:11:12.940Z,18.95
2023-02-13T19:12:12.991Z,19.01
2023-02-13T19:13:13.017Z,18.98
2023-02-13T19:14:13.057Z,19.00
2023-02-13T19:15:13.087Z,19.01
2023-02-13T19:16:13.189Z,19.00
2023-02-13T19:17:13.182Z,19.03
2023-02-13T19:18:13.261Z,19.03
2023-02-13T19:19:13.278Z,19.06
2023-02-13T19:20:15.636Z,19.04
2023-02-13T19:21:13.308Z,19.03
2023-02-13T19:22:13.281Z,19.03
2023-02-13T19:26:13.259Z,19.02
2023-02-13T19:27:13.237Z,19.05
2023-02-13T19:32:13.307Z,19.04
2023-02-13T19:33:13.218Z,19.06
2023-02-13T19:34:13.194Z,19.00
2023-02-13T19:35:13.197Z,19.06
2023-02-13T19:36:13.176Z,19.05
2023-02-13T19:37:13.185Z,19.04
2023-02-13T19:38:13.192Z,19.03
2023-02-13T19:39:13.195Z,19.00
2023-02-13T19:40:13.154Z,19.04
2023-02-13T19:41:13.147Z,19.03
2023-02-13T19:42:13.167Z,19.04
2023-02-13T19:43:13.157Z,19.01
2023-02-13T19:44:13.184Z,19.04